Time;durP1;ratioP1;P1;durP2;ratioP2;P2;SDS_P1;SDS_P2;PMS_P1;PMS_P2;Temp;Humidity;BMP_temperature;BMP_pressure;BME280_temperature;BME280_humidity;BME280_pressure;Samples;Min_cycle;Max_cycle;Signal;HPM_P1;HPM_P2
2024/01/21 00:01:29;;;;;;;6.40;4.90;;;;;;;20.48;23.32;102233.08;103353;1286;75268;-80
2024/01/21 00:03:55;;;;;;;7.60;5.40;;;;;;;20.48;23.25;102235.96;104167;1285;62187;-79
2024/01/21 00:06:21;;;;;;;8.00;5.30;;;;;;;20.48;23.20;102239.68;103704;1292;62190;-80
2024/01/21 00:08:47;;;;;;;6.80;5.50;;;;;;;20.48;23.28;102235.42;103506;1283;62274;-80
2024/01/21 00:11:13;;;;;;;7.10;5.40;;;;;;;20.47;23.10;102236.15;103732;1285;62184;-80
2024/01/21 00:13:39;;;;;;;6.90;5.30;;;;;;;20.48;23.30;102237.36;103833;1286;62175;-79
2024/01/21 00:16:04;;;;;;;9.10;5.40;;;;;;;20.48;23.31;102238.44;103376;1286;62133;-81
2024/01/21 00:18:30;;;;;;;7.50;5.80;;;;;;;20.48;23.29;102235.95;103540;1287;62181;-81
2024/01/21 00:20:56;;;;;;;7.00;5.10;;;;;;;20.48;23.34;102238.83;103418;1291;62142;-81
2024/01/21 00:23:22;;;;;;;6.20;5.20;;;;;;;20.47;23.28;102238.12;103383;1286;62200;-81
2024/01/21 00:25:47;;;;;;;7.10;5.30;;;;;;;20.48;23.18;102239.90;103529;1286;62817;-81
2024/01/21 00:28:14;;;;;;;7.40;5.10;;;;;;;20.47;23.10;102244.58;103805;1286;62929;-79
2024/01/21 00:30:40;;;;;;;7.60;5.70;;;;;;;20.47;23.09;102247.99;103573;1283;62244;-80
2024/01/21 00:33:06;;;;;;;6.50;4.90;;;;;;;20.47;23.17;102254.77;103342;1283;62118;-81
2024/01/21 00:35:32;;;;;;;7.70;5.20;;;;;;;20.47;23.19;102249.05;103559;1286;62232;-80
2024/01/21 00:37:57;;;;;;;6.80;5.50;;;;;;;20.47;23.10;102254.07;103809;1289;62210;-79
2024/01/21 00:40:23;;;;;;;7.70;5.90;;;;;;;20.47;23.02;102253.18;103574;1289;63359;-80
2024/01/21 00:42:49;;;;;;;7.20;5.60;;;;;;;20.46;23.20;102255.69;103502;1296;63242;-81
2024/01/21 00:45:14;;;;;;;7.80;5.60;;;;;;;20.46;23.05;102251.77;103505;1286;62235;-81
2024/01/21 00:47:40;;;;;;;7.40;5.60;;;;;;;20.46;23.02;102254.98;103521;1284;63635;-80
2024/01/21 00:50:06;;;;;;;6.70;5.30;;;;;;;20.46;22.94;102261.60;103506;1289;63311;-79
2024/01/21 00:52:32;;;;;;;7.30;5.60;;;;;;;20.46;22.99;102261.63;103530;1283;62427;-81
2024/01/21 00:54:58;;;;;;;7.30;5.70;;;;;;;20.46;22.96;102262.68;103544;1289;63359;-81
2024/01/21 00:57:23;;;;;;;8.60;5.70;;;;;;;20.46;23.01;102258.07;103487;1287;63438;-81
2024/01/21 00:59:49;;;;;;;7.30;5.50;;;;;;;20.46;22.95;102257.32;103501;1286;63530;-80
2024/01/21 01:02:15;;;;;;;7.40;5.60;;;;;;;20.45;23.06;102256.82;103452;1283;63418;-80
2024/01/21 01:04:41;;;;;;;8.40;5.90;;;;;;;20.45;22.95;102253.59;103354;1287;63450;-81
2024/01/21 01:07:07;;;;;;;8.10;5.90;;;;;;;20.45;22.89;102256.98;103536;1288;62257;-81
2024/01/21 01:09:33;;;;;;;8.00;5.90;;;;;;;20.44;22.88;102259.73;103494;1288;75331;-80
2024/01/21 01:11:59;;;;;;;7.40;5.80;;;;;;;20.45;22.99;102259.52;103652;1286;62317;-80
2024/01/21 01:14:25;;;;;;;7.70;5.60;;;;;;;20.45;22.79;102259.16;103549;1286;62229;-80
2024/01/21 01:16:50;;;;;;;7.90;5.80;;;;;;;20.45;22.81;102250.41;103526;1283;62126;-79
2024/01/21 01:19:17;;;;;;;7.70;5.80;;;;;;;20.44;22.81;102252.54;103591;1289;62222;-80
2024/01/21 01:21:42;;;;;;;8.10;5.90;;;;;;;20.44;22.89;102247.02;103569;1282;63402;-81
2024/01/21 01:24:08;;;;;;;7.60;5.90;;;;;;;20.44;22.90;102249.71;103558;1289;62124;-81
2024/01/21 01:26:34;;;;;;;6.80;5.50;;;;;;;20.43;22.81;102248.67;103721;1283;62573;-78
2024/01/21 01:29:00;;;;;;;7.20;5.50;;;;;;;20.44;22.81;102250.09;103524;1288;62153;-81
2024/01/21 01:31:25;;;;;;;7.00;5.90;;;;;;;20.43;22.82;102251.69;103471;1286;62213;-81
2024/01/21 01:33:51;;;;;;;7.50;5.80;;;;;;;20.43;22.76;102253.67;103494;1290;63642;-80
2024/01/21 01:36:17;;;;;;;9.40;6.10;;;;;;;20.43;22.71;102251.52;103558;1286;62200;-80
2024/01/21 01:38:44;;;;;;;7.40;5.70;;;;;;;20.43;22.78;102251.73;103426;1288;62196;-81
2024/01/21 01:41:10;;;;;;;7.90;6.30;;;;;;;20.43;22.64;102243.50;103557;1283;62194;-81
2024/01/21 01:43:35;;;;;;;7.70;6.10;;;;;;;20.43;22.79;102240.81;103409;1287;62480;-80
2024/01/21 01:46:01;;;;;;;7.70;6.20;;;;;;;20.42;22.68;102240.13;103419;1287;62230;-79
2024/01/21 01:48:28;;;;;;;7.60;6.10;;;;;;;20.42;22.68;102241.91;103692;1286;63723;-80
2024/01/21 01:50:54;;;;;;;8.40;6.60;;;;;;;20.42;22.63;102246.05;103530;1286;62169;-80
2024/01/21 01:53:19;;;;;;;7.60;6.10;;;;;;;20.42;22.71;102254.27;103521;1289;62174;-81
2024/01/21 01:55:45;;;;;;;7.50;5.90;;;;;;;20.42;22.66;102255.18;103854;1286;62233;-79
2024/01/21 01:58:15;;;;;;;8.00;6.20;;;;;;;20.41;22.53;102255.57;103339;1286;62254;-80
2024/01/21 02:00:41;;;;;;;8.30;6.30;;;;;;;20.41;22.54;102260.90;103410;1283;73805;-81
2024/01/21 02:03:07;;;;;;;7.70;6.20;;;;;;;20.41;22.69;102258.05;103505;1289;62175;-81
2024/01/21 02:05:33;;;;;;;9.20;6.40;;;;;;;20.41;22.55;102261.83;103491;1286;62165;-81
2024/01/21 02:07:59;;;;;;;8.20;6.30;;;;;;;20.42;22.44;102263.95;103371;1286;62286;-80
2024/01/21 02:10:25;;;;;;;7.80;6.10;;;;;;;20.41;22.51;102267.89;103510;1288;63367;-81
2024/01/21 02:12:53;;;;;;;9.90;7.20;;;;;;;20.41;22.47;102267.37;103697;1286;62334;-79
2024/01/21 02:15:19;;;;;;;8.40;6.60;;;;;;;20.41;22.59;102270.40;103537;1288;62197;-81
2024/01/21 02:17:45;;;;;;;8.40;6.60;;;;;;;20.41;22.38;102273.81;103320;1289;62290;-81
2024/01/21 02:20:11;;;;;;;8.80;6.90;;;;;;;20.41;22.47;102272.56;103684;1283;62184;-81
2024/01/21 02:22:42;;;;;;;9.50;7.00;;;;;;;20.41;22.57;102272.20;103862;1283;62167;-80
2024/01/21 02:25:09;;;;;;;8.10;6.40;;;;;;;20.41;22.41;102279.55;103530;1283;62205;-80
2024/01/21 02:27:35;;;;;;;7.70;6.40;;;;;;;20.40;22.58;102281.36;103663;1286;62081;-80
2024/01/21 02:30:01;;;;;;;9.10;6.60;;;;;;;20.40;22.55;102280.64;103408;1286;63446;-81
2024/01/21 02:32:27;;;;;;;8.40;6.40;;;;;;;20.40;22.36;102280.84;103637;1286;62185;-79
2024/01/21 02:34:53;;;;;;;8.20;6.30;;;;;;;20.40;22.46;102281.71;103534;1286;63399;-80
2024/01/21 02:37:19;;;;;;;8.40;6.40;;;;;;;20.40;22.46;102276.88;103534;1286;62606;-81
2024/01/21 02:39:45;;;;;;;9.30;6.80;;;;;;;20.39;22.45;102279.60;103171;1283;63365;-81
2024/01/21 02:42:11;;;;;;;9.30;6.90;;;;;;;20.39;22.41;102283.91;103553;1289;62191;-80
2024/01/21 02:44:36;;;;;;;8.50;6.50;;;;;;;20.39;22.31;102287.85;103737;1281;75429;-81
2024/01/21 02:47:02;;;;;;;8.50;6.60;;;;;;;20.39;22.37;102291.45;103525;1283;62210;-80
2024/01/21 02:49:28;;;;;;;7.90;6.50;;;;;;;20.38;22.29;102289.48;103689;1286;63194;-81
2024/01/21 02:51:55;;;;;;;8.70;6.70;;;;;;;20.38;22.41;102287.54;103358;1289;63399;-80
2024/01/21 02:54:21;;;;;;;8.60;6.60;;;;;;;20.38;22.43;102292.54;103579;1289;62159;-81
2024/01/21 02:56:47;;;;;;;8.40;6.40;;;;;;;20.38;22.43;102294.88;103675;1282;62190;-81
2024/01/21 02:59:13;;;;;;;8.70;6.50;;;;;;;20.37;22.20;102296.52;103379;1286;62280;-80
2024/01/21 03:01:39;;;;;;;8.80;6.90;;;;;;;20.37;22.26;102294.90;103644;1283;62159;-80
2024/01/21 03:04:04;;;;;;;9.20;6.60;;;;;;;20.37;22.26;102298.13;103546;1288;62196;-80
2024/01/21 03:06:30;;;;;;;9.30;6.70;;;;;;;20.37;22.30;102297.95;103647;1283;75090;-81
2024/01/21 03:08:56;;;;;;;8.50;6.50;;;;;;;20.37;22.24;102300.08;103360;1289;62180;-80
2024/01/21 03:11:22;;;;;;;9.00;6.70;;;;;;;20.36;22.21;102301.73;103898;1283;62470;-81
2024/01/21 03:13:48;;;;;;;8.60;6.70;;;;;;;20.37;22.42;102305.66;103500;1288;62282;-81
2024/01/21 03:16:14;;;;;;;8.00;6.80;;;;;;;20.37;22.18;102309.04;103659;1282;62515;-79
2024/01/21 03:18:40;;;;;;;9.10;6.90;;;;;;;20.36;22.33;102307.27;103534;1284;62201;-80
2024/01/21 03:21:14;;;;;;;8.90;7.20;;;;;;;20.36;22.22;102307.48;104077;1283;62127;-81
2024/01/21 03:23:40;;;;;;;8.90;6.70;;;;;;;20.36;22.28;102309.63;103520;1283;62515;-81
2024/01/21 03:26:06;;;;;;;8.60;6.80;;;;;;;20.36;22.24;102312.46;103673;1283;62204;-80
2024/01/21 03:28:32;;;;;;;8.30;6.50;;;;;;;20.36;22.22;102315.16;103703;1283;62123;-79
2024/01/21 03:30:57;;;;;;;8.90;6.40;;;;;;;20.36;22.27;102319.11;103376;1288;62192;-81
2024/01/21 03:33:25;;;;;;;9.70;6.80;;;;;;;20.35;22.17;102316.83;103663;1283;62637;-81
2024/01/21 03:35:50;;;;;;;7.70;6.10;;;;;;;20.35;22.23;102316.64;103381;1283;63518;-81
2024/01/21 03:38:16;;;;;;;8.80;6.60;;;;;;;20.35;22.16;102318.06;103520;1287;63356;-80
2024/01/21 03:40:42;;;;;;;7.40;6.00;;;;;;;20.35;22.12;102316.11;103654;1281;62430;-80
2024/01/21 03:43:07;;;;;;;7.40;6.10;;;;;;;20.35;22.29;102317.19;103514;1283;62093;-80
2024/01/21 03:45:33;;;;;;;7.60;6.00;;;;;;;20.35;22.39;102320.93;103512;1283;62216;-80
2024/01/21 03:47:59;;;;;;;7.90;6.20;;;;;;;20.35;22.19;102322.73;103758;1283;62277;-80
2024/01/21 03:50:24;;;;;;;8.90;6.20;;;;;;;20.35;22.06;102317.20;103888;1285;62181;-80
2024/01/21 03:52:50;;;;;;;7.50;5.80;;;;;;;20.34;22.29;102319.19;103521;1289;62954;-80
2024/01/21 03:55:16;;;;;;;7.50;6.00;;;;;;;20.34;22.20;102314.72;103601;1286;62581;-80
2024/01/21 03:57:43;;;;;;;7.20;5.40;;;;;;;20.34;22.25;102319.70;103550;1283;62121;-80
2024/01/21 04:00:11;;;;;;;6.90;5.60;;;;;;;20.34;22.22;102319.73;103383;1283;72437;-82
2024/01/21 04:02:37;;;;;;;7.00;5.30;;;;;;;20.34;22.12;102322.23;103345;1286;62212;-80
2024/01/21 04:05:06;;;;;;;6.40;5.10;;;;;;;20.34;22.11;102329.75;103455;1281;63449;-79
2024/01/21 04:07:32;;;;;;;7.10;5.00;;;;;;;20.33;22.21;102325.65;103718;1283;62228;-80
2024/01/21 04:09:58;;;;;;;7.80;5.50;;;;;;;20.33;22.25;102334.80;103494;1286;62209;-80
2024/01/21 04:12:23;;;;;;;7.50;5.00;;;;;;;20.32;22.30;102331.06;103369;1283;63456;-81
2024/01/21 04:14:49;;;;;;;7.30;5.40;;;;;;;20.32;22.21;102334.81;103488;1281;62191;-81
2024/01/21 04:17:15;;;;;;;7.60;5.40;;;;;;;20.32;22.20;102330.35;103498;1288;62130;-80
2024/01/21 04:19:40;;;;;;;6.60;5.10;;;;;;;20.32;22.23;102334.84;103442;1285;62235;-80
2024/01/21 04:22:06;;;;;;;6.70;5.30;;;;;;;20.32;22.27;102336.09;103645;1281;73413;-80
2024/01/21 04:24:32;;;;;;;6.40;5.00;;;;;;;20.32;22.22;102335.38;103527;1283;63387;-81
2024/01/21 04:26:58;;;;;;;6.80;4.90;;;;;;;20.31;22.22;102341.14;103146;1282;63416;-81
2024/01/21 04:29:24;;;;;;;7.00;5.10;;;;;;;20.31;22.14;102340.23;103654;1283;62191;-81
2024/01/21 04:31:50;;;;;;;6.70;5.40;;;;;;;20.31;22.16;102347.20;103365;1284;62197;-81
2024/01/21 04:34:16;;;;;;;6.80;4.70;;;;;;;20.31;22.06;102350.44;103535;1283;62263;-81
2024/01/21 04:36:41;;;;;;;6.20;4.90;;;;;;;20.31;22.12;102355.09;103465;1289;63780;-80
2024/01/21 04:39:08;;;;;;;6.20;4.80;;;;;;;20.30;22.31;102355.27;103399;1286;62271;-80
2024/01/21 04:41:34;;;;;;;7.00;4.70;;;;;;;20.30;22.18;102357.98;103573;1283;62191;-81
2024/01/21 04:43:59;;;;;;;7.10;4.80;;;;;;;20.30;22.10;102363.35;103779;1288;62203;-81
2024/01/21 04:46:25;;;;;;;6.20;4.90;;;;;;;20.30;22.14;102370.85;103600;1283;62223;-81
2024/01/21 04:48:51;;;;;;;7.40;4.90;;;;;;;20.30;22.01;102365.68;103583;1285;62202;-80
2024/01/21 04:51:17;;;;;;;6.50;4.90;;;;;;;20.30;22.12;102374.44;103685;1285;62255;-81
2024/01/21 04:53:44;;;;;;;6.20;4.50;;;;;;;20.30;22.02;102378.89;103585;1288;62247;-81
2024/01/21 04:56:17;;;;;;;6.20;4.40;;;;;;;20.31;22.10;102384.41;103530;1288;72991;-80
2024/01/21 04:58:43;;;;;;;6.50;5.00;;;;;;;20.30;21.98;102391.06;103319;1281;76035;-81
2024/01/21 05:01:09;;;;;;;6.70;4.80;;;;;;;20.29;21.92;102396.83;103783;1282;62825;-81
2024/01/21 05:03:35;;;;;;;5.30;4.40;;;;;;;20.29;22.03;102402.00;103370;1283;62548;-80
2024/01/21 05:06:01;;;;;;;6.00;4.50;;;;;;;20.29;22.06;102408.98;103643;1282;62181;-80
2024/01/21 05:08:27;;;;;;;5.40;4.30;;;;;;;20.28;21.96;102416.34;103766;1285;63315;-79
2024/01/21 05:10:53;;;;;;;5.70;4.30;;;;;;;20.29;22.01;102429.55;103577;1286;63984;-81
2024/01/21 05:13:19;;;;;;;5.60;4.30;;;;;;;20.29;22.06;102439.75;103369;1283;62187;-81
2024/01/21 05:15:45;;;;;;;6.50;4.80;;;;;;;20.29;21.94;102435.28;103547;1283;62184;-81
2024/01/21 05:18:11;;;;;;;6.20;4.50;;;;;;;20.29;21.97;102433.69;103920;1281;72277;-80
2024/01/21 05:20:36;;;;;;;7.00;4.80;;;;;;;20.28;21.85;102436.01;103685;1285;62643;-80
2024/01/21 05:23:03;;;;;;;6.50;4.60;;;;;;;20.28;21.96;102439.95;103340;1283;62216;-80
2024/01/21 05:25:29;;;;;;;5.60;4.40;;;;;;;20.28;21.98;102438.55;103269;1286;62370;-80
2024/01/21 05:27:55;;;;;;;6.80;5.20;;;;;;;20.27;21.82;102438.36;103417;1290;62393;-80
2024/01/21 05:30:22;;;;;;;6.20;4.50;;;;;;;20.28;22.02;102443.37;103105;1291;62213;-82
2024/01/21 05:32:50;;;;;;;7.00;5.30;;;;;;;20.28;21.84;102451.77;102993;1286;62244;-79
2024/01/21 05:35:17;;;;;;;;;;;;;;;20.27;21.96;102455.20;103370;1285;63166;-80
2024/01/21 05:37:43;;;;;;;7.50;5.50;;;;;;;20.24;21.93;102456.56;103380;1291;62306;-81
2024/01/21 05:40:09;;;;;;;8.70;5.70;;;;;;;20.24;21.83;102462.61;103102;1291;64048;-81
2024/01/21 05:42:34;;;;;;;7.40;5.50;;;;;;;20.25;21.98;102464.73;103311;1286;62796;-81
2024/01/21 05:45:03;;;;;;;7.00;5.30;;;;;;;20.25;21.96;102470.45;103346;1285;62126;-81
2024/01/21 05:47:29;;;;;;;8.20;5.70;;;;;;;20.24;21.94;102472.45;103248;1286;62198;-80
2024/01/21 05:49:55;;;;;;;7.90;5.70;;;;;;;20.25;21.76;102476.73;103139;1286;62761;-81
2024/01/21 05:52:21;;;;;;;8.00;5.60;;;;;;;20.25;21.85;102476.02;103260;1285;62192;-80
2024/01/21 05:54:46;;;;;;;8.70;6.10;;;;;;;20.24;21.70;102475.84;103602;1292;62365;-80
2024/01/21 05:57:12;;;;;;;8.70;5.40;;;;;;;20.24;21.82;102479.77;103495;1281;62160;-82
2024/01/21 05:59:38;;;;;;;7.70;6.10;;;;;;;20.24;21.97;102481.42;103513;1283;72564;-80
2024/01/21 06:02:07;;;;;;;7.60;5.70;;;;;;;20.24;21.81;102485.70;103810;1285;62674;-80
2024/01/21 06:04:33;;;;;;;;;;;;;;;20.24;21.77;102484.98;103722;1285;63555;-80
2024/01/21 06:06:59;;;;;;;9.90;6.50;;;;;;;20.20;21.89;102479.23;103685;1283;62174;-80
2024/01/21 06:09:25;;;;;;;9.70;6.80;;;;;;;20.21;21.95;102482.95;103507;1288;62123;-81
2024/01/21 06:11:51;;;;;;;7.90;6.10;;;;;;;20.22;21.95;102481.14;103818;1283;62216;-81
2024/01/21 06:14:16;;;;;;;10.20;7.10;;;;;;;20.21;21.91;102482.05;103535;1286;63448;-80
2024/01/21 06:16:42;;;;;;;9.80;6.80;;;;;;;20.21;21.82;102485.83;103236;1283;62117;-81
2024/01/21 06:19:08;;;;;;;12.10;7.80;;;;;;;20.21;21.74;102492.79;103600;1285;62273;-80
2024/01/21 06:21:41;;;;;;;11.30;7.50;;;;;;;20.21;21.94;102495.65;103636;1283;73175;-79
2024/01/21 06:24:07;;;;;;;11.40;7.90;;;;;;;20.22;21.90;102502.23;103672;1283;76278;-81
2024/01/21 06:26:35;;;;;;;10.80;7.60;;;;;;;20.22;21.90;102506.72;103644;1283;62219;-81
2024/01/21 06:29:01;;;;;;;11.40;7.80;;;;;;;20.21;21.83;102513.89;103300;1286;62293;-80
2024/01/21 06:31:27;;;;;;;11.10;7.80;;;;;;;20.21;21.92;102516.75;103321;1283;62288;-81
2024/01/21 06:33:52;;;;;;;13.10;8.30;;;;;;;20.21;21.72;102519.61;103686;1285;63367;-82
2024/01/21 06:36:18;;;;;;;12.90;8.10;;;;;;;20.21;21.80;102525.33;103562;1283;62217;-80
2024/01/21 06:38:45;;;;;;;10.80;7.70;;;;;;;20.21;21.69;102521.40;103799;1281;62082;-80
2024/01/21 06:41:10;;;;;;;11.50;7.80;;;;;;;20.21;21.85;102523.34;103389;1283;62235;-81
2024/01/21 06:43:36;;;;;;;11.90;8.10;;;;;;;20.20;21.66;102525.71;103406;1283;62258;-80
2024/01/21 06:46:02;;;;;;;12.00;8.20;;;;;;;20.21;21.75;102528.38;103537;1283;76197;-81
2024/01/21 06:48:28;;;;;;;11.60;8.20;;;;;;;20.21;21.77;102530.88;103821;1288;62136;-80
2024/01/21 06:50:53;;;;;;;11.20;7.90;;;;;;;20.21;21.77;102531.77;103745;1283;62286;-80
2024/01/21 06:53:20;;;;;;;11.40;7.90;;;;;;;20.21;21.68;102531.42;103364;1283;62252;-81
2024/01/21 06:55:45;;;;;;;11.70;7.90;;;;;;;20.21;21.75;102525.70;103696;1283;62746;-79
2024/01/21 06:58:12;;;;;;;11.00;7.60;;;;;;;20.20;21.79;102524.66;103514;1288;62309;-81
2024/01/21 07:00:38;;;;;;;10.50;7.70;;;;;;;20.20;21.68;102527.52;103391;1283;62187;-81
2024/01/21 07:03:04;;;;;;;10.70;7.40;;;;;;;20.20;21.67;102529.67;103451;1281;62172;-81
2024/01/21 07:05:29;;;;;;;10.00;7.60;;;;;;;20.19;21.74;102532.89;103534;1282;73621;-81
2024/01/21 07:07:56;;;;;;;10.70;7.40;;;;;;;20.20;21.79;102532.90;103489;1288;62226;-82
2024/01/21 07:10:23;;;;;;;10.40;7.10;;;;;;;20.19;21.60;102535.75;103681;1283;62175;-81
2024/01/21 07:12:49;;;;;;;10.50;7.50;;;;;;;20.20;21.69;102535.92;103629;1283;62878;-81
2024/01/21 07:15:15;;;;;;;9.80;6.60;;;;;;;20.20;21.74;102544.34;103838;1283;63268;-81
2024/01/21 07:17:40;;;;;;;9.50;7.00;;;;;;;20.20;21.62;102541.29;103151;1283;62210;-82
2024/01/21 07:20:10;;;;;;;9.60;6.60;;;;;;;20.20;21.68;102542.54;103394;1283;62134;-80
2024/01/21 07:22:36;;;;;;;9.20;6.50;;;;;;;20.20;21.75;102541.30;103430;1283;62015;-80
2024/01/21 07:25:02;;;;;;;9.90;6.70;;;;;;;20.20;21.76;102540.58;103423;1288;62663;-81
2024/01/21 07:27:28;;;;;;;8.80;6.30;;;;;;;20.20;21.92;102542.36;103494;1283;62258;-80
2024/01/21 07:29:53;;;;;;;9.70;6.50;;;;;;;20.19;21.65;102542.38;103560;1283;63379;-81
2024/01/21 07:32:19;;;;;;;8.40;6.10;;;;;;;20.19;21.82;102542.20;103747;1283;62288;-80
2024/01/21 07:34:45;;;;;;;8.90;6.10;;;;;;;20.19;21.86;102544.88;103415;1286;62251;-80
2024/01/21 07:37:11;;;;;;;9.30;6.50;;;;;;;20.19;21.83;102540.41;103629;1283;73453;-81
2024/01/21 07:39:37;;;;;;;9.20;6.50;;;;;;;20.19;21.80;102541.66;103211;1285;706499;-81
2024/01/21 07:42:03;;;;;;;8.60;6.20;;;;;;;20.20;21.77;102543.27;103519;1283;62120;-80
2024/01/21 07:44:29;;;;;;;11.60;7.00;;;;;;;20.19;21.91;102546.50;103534;1281;62202;-80
2024/01/21 07:46:54;;;;;;;8.90;6.40;;;;;;;20.20;21.96;102548.08;103551;1283;62480;-80
2024/01/21 07:49:20;;;;;;;9.30;6.40;;;;;;;20.20;21.95;102553.80;103638;1283;62571;-80
2024/01/21 07:51:46;;;;;;;9.30;6.10;;;;;;;20.20;21.81;102554.69;103551;1281;62316;-81
2024/01/21 07:54:12;;;;;;;8.70;6.00;;;;;;;20.20;21.77;102558.45;103693;1283;62180;-79
2024/01/21 07:56:37;;;;;;;9.30;6.60;;;;;;;20.20;21.82;102562.20;104108;1283;62235;-80
2024/01/21 07:59:04;;;;;;;9.10;6.00;;;;;;;20.20;21.81;102559.17;103244;1283;62082;-80
2024/01/21 08:01:29;;;;;;;9.30;6.30;;;;;;;20.20;22.00;102561.11;103479;1288;62221;-83
2024/01/21 08:03:55;;;;;;;8.70;6.30;;;;;;;20.20;21.94;102560.23;103614;1283;62693;-81
2024/01/21 08:06:21;;;;;;;9.20;6.20;;;;;;;20.21;21.89;102560.73;103666;1288;63023;-80
2024/01/21 08:08:47;;;;;;;9.30;5.90;;;;;;;20.21;21.95;102559.14;103545;1282;63388;-80
2024/01/21 08:11:13;;;;;;;9.00;6.40;;;;;;;20.21;21.91;102557.50;103372;1281;73466;-81
2024/01/21 08:13:38;;;;;;;8.30;6.10;;;;;;;20.21;21.97;102556.80;103686;1281;62570;-81
2024/01/21 08:16:04;;;;;;;9.00;6.40;;;;;;;20.22;22.12;102554.60;103604;1283;62343;-79
2024/01/21 08:18:30;;;;;;;9.70;6.20;;;;;;;20.22;22.11;102561.96;103525;1283;63363;-80
2024/01/21 08:20:56;;;;;;;8.60;6.00;;;;;;;20.22;22.12;102570.34;103385;1288;62204;-81
2024/01/21 08:23:21;;;;;;;8.50;6.30;;;;;;;20.23;22.13;102571.56;103444;1283;62214;-81
2024/01/21 08:25:47;;;;;;;8.70;6.10;;;;;;;20.23;22.06;102578.55;103474;1283;75025;-82
2024/01/21 08:28:13;;;;;;;8.80;5.60;;;;;;;20.23;22.18;102586.93;103547;1284;62219;-81
2024/01/21 08:30:39;;;;;;;8.00;5.90;;;;;;;20.23;22.05;102585.84;103593;1283;63295;-80
2024/01/21 08:33:05;;;;;;;7.60;5.80;;;;;;;20.24;22.06;102583.50;103421;1283;62844;-80
2024/01/21 08:35:30;;;;;;;7.50;5.60;;;;;;;20.24;22.19;102586.89;103496;1288;62242;-81
2024/01/21 08:37:56;;;;;;;9.10;5.90;;;;;;;20.24;22.15;102588.50;103537;1283;62166;-80
2024/01/21 08:40:22;;;;;;;8.00;5.70;;;;;;;20.24;22.22;102593.48;103571;1282;62161;-83
2024/01/21 08:42:48;;;;;;;7.80;5.60;;;;;;;20.25;22.20;102599.16;103557;1283;62113;-80
2024/01/21 08:45:14;;;;;;;7.90;5.60;;;;;;;20.26;22.08;102599.51;103522;1287;62117;-81
2024/01/21 08:47:39;;;;;;;7.10;5.80;;;;;;;20.26;22.15;102604.34;103660;1283;62325;-80
2024/01/21 08:50:05;;;;;;;7.20;5.40;;;;;;;20.27;22.24;102603.41;103729;1282;62196;-80
2024/01/21 08:52:31;;;;;;;7.00;5.20;;;;;;;20.26;22.17;102603.96;103395;1284;62264;-81
2024/01/21 08:54:57;;;;;;;6.20;5.00;;;;;;;20.27;22.07;102609.48;103504;1286;62204;-80
2024/01/21 08:57:23;;;;;;;6.80;5.30;;;;;;;20.27;22.23;102607.68;103693;1283;72784;-81
2024/01/21 08:59:51;;;;;;;6.90;5.20;;;;;;;20.27;21.99;102609.30;103196;1283;62169;-81
2024/01/21 09:02:18;;;;;;;6.70;4.90;;;;;;;20.28;22.13;102605.16;103719;1283;62467;-79
2024/01/21 09:04:45;;;;;;;6.90;4.80;;;;;;;20.28;22.09;102599.42;103749;1283;62164;-81
2024/01/21 09:07:11;;;;;;;7.00;5.20;;;;;;;20.28;22.16;102591.21;103568;1283;73289;-82
2024/01/21 09:09:37;;;;;;;6.70;5.00;;;;;;;20.28;22.24;102587.80;103491;1281;75078;-80
2024/01/21 09:12:03;;;;;;;6.90;5.10;;;;;;;20.28;22.17;102585.84;104039;1283;63405;-81
2024/01/21 09:14:29;;;;;;;6.80;4.70;;;;;;;20.29;22.22;102585.83;103501;1288;62424;-80
2024/01/21 09:16:54;;;;;;;6.20;4.80;;;;;;;20.29;22.01;102594.21;103370;1283;62191;-81
2024/01/21 09:19:20;;;;;;;6.50;4.90;;;;;;;20.30;22.06;102594.20;103548;1285;62140;-81
2024/01/21 09:21:46;;;;;;;6.30;4.60;;;;;;;20.30;22.14;102594.17;103653;1283;62182;-81
2024/01/21 09:24:14;;;;;;;6.70;4.70;;;;;;;20.30;22.17;102593.09;103517;1283;62907;-81
2024/01/21 09:26:40;;;;;;;6.10;4.90;;;;;;;20.31;22.14;102599.34;103512;1281;62167;-81
2024/01/21 09:29:06;;;;;;;6.10;4.70;;;;;;;20.30;22.32;102597.55;103876;1281;63462;-81
2024/01/21 09:31:31;;;;;;;7.30;4.60;;;;;;;20.31;22.31;102600.56;103481;1288;62232;-81
2024/01/21 09:33:57;;;;;;;5.40;4.00;;;;;;;20.31;22.17;102596.29;103727;1283;62325;-81
2024/01/21 09:36:23;;;;;;;5.70;4.50;;;;;;;20.31;22.34;102596.08;103378;1283;62940;-82
2024/01/21 09:38:52;;;;;;;5.30;4.40;;;;;;;20.31;22.17;102602.52;103656;1283;63226;-81
2024/01/21 09:41:43;;;;;;;6.60;5.20;;;;;;;20.32;22.31;102606.98;103615;1288;62344;-80
2024/01/21 09:44:08;;;;;;;6.00;4.80;;;;;;;20.31;22.29;102604.86;103214;1285;62243;-82
2024/01/21 09:46:34;;;;;;;6.00;4.60;;;;;;;20.32;22.20;102601.23;103647;1283;62732;-81
2024/01/21 09:49:06;;;;;;;6.00;4.50;;;;;;;20.32;22.31;102604.63;103389;1288;73911;-81
2024/01/21 09:51:32;;;;;;;5.70;4.30;;;;;;;20.32;22.34;102611.58;103346;1281;62228;-81
2024/01/21 09:54:00;;;;;;;6.70;4.40;;;;;;;20.33;22.26;102611.58;103543;1283;62251;-81
2024/01/21 09:56:26;;;;;;;6.40;4.70;;;;;;;20.33;22.36;102616.22;103587;1283;62165;-80
2024/01/21 09:58:52;;;;;;;6.50;4.60;;;;;;;20.33;22.40;102619.27;103507;1286;62554;-82
2024/01/21 10:01:18;;;;;;;6.20;4.80;;;;;;;20.34;22.39;102620.15;103901;1285;62162;-80
2024/01/21 10:03:44;;;;;;;7.30;4.80;;;;;;;20.34;22.38;102617.09;103545;1288;62364;-81
2024/01/21 10:06:10;;;;;;;6.30;4.30;;;;;;;20.34;22.37;102612.43;103522;1281;62242;-80
2024/01/21 10:08:39;;;;;;;5.90;4.60;;;;;;;20.34;22.34;102613.30;103975;1282;63133;-80
2024/01/21 10:11:04;;;;;;;6.60;4.80;;;;;;;20.34;22.39;102603.83;103698;1285;62649;-81
2024/01/21 10:13:31;;;;;;;7.10;4.60;;;;;;;20.34;22.43;102597.40;103369;1283;62248;-80
2024/01/21 10:16:00;;;;;;;6.30;4.90;;;;;;;20.35;22.36;102598.81;103560;1283;62572;-80
2024/01/21 10:18:26;;;;;;;6.50;4.80;;;;;;;20.35;22.28;102598.45;103775;1283;73301;-80
2024/01/21 10:20:51;;;;;;;6.10;4.60;;;;;;;20.35;22.39;102595.40;103541;1288;62303;-81
2024/01/21 10:23:17;;;;;;;5.60;4.60;;;;;;;20.35;22.38;102590.02;103540;1281;62229;-80
2024/01/21 10:25:43;;;;;;;5.80;4.60;;;;;;;20.35;22.41;102588.05;103514;1283;62296;-82
2024/01/21 10:28:12;;;;;;;5.90;4.60;;;;;;;20.35;22.47;102590.55;103771;1283;62998;-80
2024/01/21 10:30:41;;;;;;;6.20;4.90;;;;;;;20.36;22.51;102590.02;103438;1283;63888;-81
2024/01/21 10:33:07;;;;;;;6.50;4.70;;;;;;;20.36;22.60;102599.13;103370;1283;62555;-81
2024/01/21 10:35:33;;;;;;;5.60;4.80;;;;;;;20.37;22.56;102599.27;103743;1283;62136;-80
2024/01/21 10:38:02;;;;;;;6.20;4.90;;;;;;;20.37;22.48;102602.46;103818;1283;62174;-80
2024/01/21 10:40:28;;;;;;;7.30;4.80;;;;;;;20.37;22.59;102605.33;103560;1282;76353;-80
2024/01/21 10:42:58;;;;;;;6.10;4.80;;;;;;;20.37;22.64;102606.58;103413;1286;62870;-81
2024/01/21 10:45:25;;;;;;;5.30;4.60;;;;;;;20.38;22.58;102606.55;103527;1283;62129;-80
2024/01/21 10:47:52;;;;;;;6.70;4.90;;;;;;;20.38;22.49;102601.02;103390;1283;72502;-80
2024/01/21 10:50:18;;;;;;;6.10;4.60;;;;;;;20.37;22.63;102597.09;103520;1285;77584;-81
2024/01/21 10:52:45;;;;;;;6.90;4.90;;;;;;;20.38;22.53;102597.77;103423;1283;62677;-80
2024/01/21 10:55:10;;;;;;;6.20;4.80;;;;;;;20.39;22.58;102592.58;103760;1285;62107;-79
2024/01/21 10:57:36;;;;;;;5.90;4.80;;;;;;;20.38;22.69;102590.25;103493;1283;62206;-81
2024/01/21 11:00:03;;;;;;;6.70;5.20;;;;;;;20.38;22.55;102589.55;103514;1283;62243;-81
2024/01/21 11:02:31;;;;;;;5.90;5.00;;;;;;;20.38;22.61;102594.20;103385;1282;62691;-80
2024/01/21 11:04:58;;;;;;;6.10;5.10;;;;;;;20.38;22.54;102588.66;103523;1282;62757;-81
2024/01/21 11:07:27;;;;;;;6.80;5.10;;;;;;;20.39;22.64;102590.23;103542;1283;63310;-81
2024/01/21 11:09:57;;;;;;;6.40;5.10;;;;;;;20.38;22.50;102586.48;103463;1286;75087;-82
2024/01/21 11:12:23;;;;;;;6.70;5.20;;;;;;;20.38;22.71;102582.94;103660;1287;62129;-83